createdAt,value
2023-03-19T00:00:37.981Z,97580.03
2023-03-19T00:02:39.324Z,97584.34
2023-03-19T00:04:40.869Z,97582.66
2023-03-19T00:06:42.160Z,97582.66
2023-03-19T00:08:43.466Z,97590.50
2023-03-19T00:10:44.803Z,97594.09
2023-03-19T00:12:46.537Z,97595.94
2023-03-19T00:14:47.888Z,97596.03
2023-03-19T00:16:49.336Z,97589.31
2023-03-19T00:18:50.679Z,97599.53
2023-03-19T00:20:52.418Z,97611.47
2023-03-19T00:22:53.751Z,97598.84
2023-03-19T00:24:55.064Z,97592.97
2023-03-19T00:26:56.661Z,97592.97
2023-03-19T00:28:57.985Z,97582.97
2023-03-19T00:30:59.331Z,97600.09
2023-03-19T00:33:02.320Z,97596.78
2023-03-19T00:35:04.036Z,97601.06
2023-03-19T00:37:05.338Z,97591.78
2023-03-19T00:39:06.679Z,97595.09
2023-03-19T00:41:08.051Z,97590.81
2023-03-19T00:43:09.450Z,97598.56
2023-03-19T00:45:10.818Z,97598.50
2023-03-19T00:47:12.419Z,97588.28
2023-03-19T00:49:13.732Z,97589.97
2023-03-19T00:51:15.104Z,97581.53
2023-03-19T00:53:16.421Z,97583.31
2023-03-19T00:55:17.756Z,97585.03
2023-03-19T00:57:19.063Z,97590.22
2023-03-19T00:59:20.614Z,97583.47
2023-03-19T01:01:22.016Z,97590.25
2023-03-19T01:03:23.356Z,97589.38
2023-03-19T01:05:24.679Z,97591.91
2023-03-19T01:07:26.238Z,97587.56
2023-03-19T01:09:27.531Z,97578.19
2023-03-19T01:11:28.834Z,97572.25
2023-03-19T01:13:30.599Z,97586.63
2023-03-19T01:15:32.016Z,97575.50
2023-03-19T01:17:33.537Z,97579.72
2023-03-19T01:19:34.846Z,97579.59
2023-03-19T01:21:36.568Z,97582.91
2023-03-19T01:23:37.895Z,97578.59
2023-03-19T01:25:39.195Z,97587.88
2023-03-19T01:27:40.506Z,97581.81
2023-03-19T01:29:41.833Z,97574.97
2023-03-19T01:31:43.123Z,97590.16
2023-03-19T01:33:44.460Z,97578.97
2023-03-19T01:35:45.828Z,97582.34
2023-03-19T01:37:47.174Z,97573.88
2023-03-19T01:39:48.541Z,97583.97
2023-03-19T01:41:49.851Z,97578.06
2023-03-19T01:43:51.194Z,97578.91
2023-03-19T01:45:52.528Z,97573.78
2023-03-19T01:47:53.848Z,97567.00
2023-03-19T01:49:55.317Z,97571.31
2023-03-19T01:51:56.639Z,97575.66
2023-03-19T01:53:57.925Z,97570.72
2023-03-19T01:55:59.259Z,97575.84
2023-03-19T01:58:02.200Z,97572.53
2023-03-19T02:00:04.280Z,97527.81
2023-03-19T02:02:05.631Z,97576.00
2023-03-19T02:04:07.138Z,97573.34
2023-03-19T02:06:08.944Z,97574.97
2023-03-19T02:08:10.372Z,97578.75
2023-03-19T02:10:11.911Z,97574.63
2023-03-19T02:12:13.204Z,97580.63
2023-03-19T02:14:14.513Z,97578.97
2023-03-19T02:16:16.066Z,97579.81
2023-03-19T02:18:17.434Z,97581.44
2023-03-19T02:20:18.817Z,97577.19
2023-03-19T02:22:20.596Z,97574.72
2023-03-19T02:24:21.901Z,97577.25
2023-03-19T02:26:23.210Z,97583.31
2023-03-19T02:28:24.502Z,97586.66
2023-03-19T02:30:26.110Z,97578.97
2023-03-19T02:32:27.437Z,97578.97
2023-03-19T02:34:28.766Z,97580.69
2023-03-19T02:36:30.767Z,97577.28
2023-03-19T02:38:32.056Z,97584.09
2023-03-19T02:40:33.515Z,97580.69
2023-03-19T02:42:35.396Z,97582.38
2023-03-19T02:44:37.440Z,97573.81
2023-03-19T02:46:38.803Z,97582.28
2023-03-19T02:48:41.315Z,97585.56
2023-03-19T02:50:42.723Z,97588.03
2023-03-19T02:52:44.055Z,97581.13
2023-03-19T02:54:45.394Z,97576.78
2023-03-19T02:56:46.908Z,97573.19
2023-03-19T02:58:48.230Z,97579.09
2023-03-19T03:00:49.557Z,97579.09
2023-03-19T03:02:50.904Z,97582.41
2023-03-19T03:04:52.244Z,97584.09
2023-03-19T03:06:54.094Z,97583.38
2023-03-19T03:08:55.430Z,97588.53
2023-03-19T03:10:56.911Z,97593.66
2023-03-19T03:12:58.205Z,97585.19
2023-03-19T03:14:59.564Z,97422.06
2023-03-19T03:17:00.874Z,97590.31
2023-03-19T03:19:02.553Z,97586.16
2023-03-19T03:21:03.855Z,97443.00
2023-03-19T03:23:05.377Z,97590.56
2023-03-19T03:25:06.675Z,97593.03
2023-03-19T03:27:08.268Z,97581.13
2023-03-19T03:29:09.584Z,97586.16
2023-03-19T03:31:10.960Z,97577.72
2023-03-19T03:33:12.365Z,97584.59
2023-03-19T03:35:15.892Z,97578.59
2023-03-19T03:37:17.582Z,97575.22
2023-03-19T03:39:19.544Z,97576.97
2023-03-19T03:41:20.876Z,97576.09
2023-03-19T03:43:22.211Z,97586.31
2023-03-19T03:45:23.509Z,97588.97
2023-03-19T03:47:24.840Z,97591.44
2023-03-19T03:49:26.263Z,97593.13
2023-03-19T03:51:27.678Z,97594.81
2023-03-19T03:53:29.004Z,97600.81
2023-03-19T03:55:30.292Z,97601.66
2023-03-19T03:57:31.598Z,97599.13
2023-03-19T03:59:32.957Z,97606.78
2023-03-19T04:01:34.348Z,97600.03
2023-03-19T04:03:35.767Z,97597.41
2023-03-19T04:05:37.898Z,97599.09
2023-03-19T04:07:39.716Z,97602.41
2023-03-19T04:09:41.342Z,97599.78
2023-03-19T04:11:42.692Z,97601.41
2023-03-19T04:13:43.983Z,97604.75
2023-03-19T04:15:45.315Z,97601.22
2023-03-19T04:17:47.303Z,97595.22
2023-03-19T04:19:48.622Z,97598.50
2023-03-19T04:21:49.948Z,97598.38
2023-03-19T04:23:51.294Z,97604.38
2023-03-19T04:25:52.604Z,97600.03
2023-03-19T04:27:53.940Z,97604.22
2023-03-19T04:29:55.549Z,97599.19
2023-03-19T04:31:57.051Z,97599.13
2023-03-19T04:33:58.458Z,97599.19
2023-03-19T04:35:59.825Z,97596.63
2023-03-19T04:38:01.141Z,97596.66
2023-03-19T04:40:02.495Z,97588.19
2023-03-19T04:42:04.570Z,97595.19
2023-03-19T04:44:06.005Z,97593.47
2023-03-19T04:46:08.191Z,97594.41
2023-03-19T04:48:09.569Z,97591.00
2023-03-19T04:50:10.912Z,97590.16
2023-03-19T04:52:12.243Z,97592.78
2023-03-19T04:54:13.814Z,97588.47
2023-03-19T04:56:16.544Z,97593.66
2023-03-19T04:58:18.073Z,97591.94
2023-03-19T05:00:20.694Z,97603.81
2023-03-19T05:02:22.065Z,97584.34
2023-03-19T05:04:24.015Z,97594.59
2023-03-19T05:06:27.261Z,97592.81
2023-03-19T05:08:28.964Z,97593.72
2023-03-19T05:10:30.356Z,97596.28
2023-03-19T05:12:32.032Z,97599.72
2023-03-19T05:14:33.360Z,97604.81
2023-03-19T05:16:35.672Z,97604.03
2023-03-19T05:18:37.901Z,97602.28
2023-03-19T05:20:40.760Z,97603.03
2023-03-19T05:22:42.309Z,97601.31
2023-03-19T05:24:43.652Z,97603.88
2023-03-19T05:26:44.980Z,97607.34
2023-03-19T05:28:46.280Z,97609.03
2023-03-19T05:30:47.636Z,97603.97
2023-03-19T05:32:48.962Z,97608.88
2023-03-19T05:34:50.277Z,97602.00
2023-03-19T05:36:51.902Z,97604.47
2023-03-19T05:38:53.420Z,97604.41
2023-03-19T05:40:54.717Z,97606.97
2023-03-19T05:42:56.015Z,97611.13
2023-03-19T05:44:57.323Z,97617.84
2023-03-19T05:46:58.612Z,97611.88
2023-03-19T05:49:00.149Z,97608.50
2023-03-19T05:51:01.970Z,97614.44
2023-03-19T05:53:03.564Z,97603.38
2023-03-19T05:55:04.882Z,97611.06
2023-03-19T05:57:06.706Z,97610.28
2023-03-19T05:59:08.292Z,97621.38
2023-03-19T06:01:09.743Z,97618.09
2023-03-19T06:03:11.194Z,97620.66
2023-03-19T06:05:12.539Z,97627.38
2023-03-19T06:07:13.843Z,97624.84
2023-03-19T06:09:15.403Z,97627.53
2023-03-19T06:11:16.844Z,97627.63
2023-03-19T06:13:18.163Z,97623.28
2023-03-19T06:15:19.508Z,97632.66
2023-03-19T06:17:21.103Z,97625.84
2023-03-19T06:19:23.049Z,97626.72
2023-03-19T06:21:29.548Z,97633.66
2023-03-19T06:23:30.924Z,97647.25
2023-03-19T06:25:32.236Z,97638.81
2023-03-19T06:27:33.568Z,97644.81
2023-03-19T06:29:34.872Z,97645.69
2023-03-19T06:31:39.359Z,97647.47
2023-03-19T06:33:41.156Z,97644.81
2023-03-19T06:35:42.522Z,97641.34
2023-03-19T06:37:43.870Z,97650.72
2023-03-19T06:39:45.206Z,97647.25
2023-03-19T06:41:46.624Z,97643.69
2023-03-19T06:43:48.010Z,97644.53
2023-03-19T06:45:49.389Z,97653.13
2023-03-19T06:47:53.456Z,97645.53
2023-03-19T06:49:54.916Z,97645.59
2023-03-19T06:51:56.210Z,97650.78
2023-03-19T06:53:57.511Z,97645.84
2023-03-19T06:55:58.808Z,97641.66
2023-03-19T06:58:00.382Z,97645.22
2023-03-19T07:00:01.771Z,97649.50
2023-03-19T07:02:03.245Z,97648.72
2023-03-19T07:04:04.597Z,97644.31
2023-03-19T07:06:07.245Z,97650.97
2023-03-19T07:08:11.991Z,97653.34
2023-03-19T07:10:14.037Z,97650.63
2023-03-19T07:12:15.328Z,97659.72
2023-03-19T07:14:16.615Z,97660.44
2023-03-19T07:16:17.958Z,97660.31
2023-03-19T07:18:19.273Z,97667.88
2023-03-19T07:20:20.855Z,97662.69
2023-03-19T07:22:22.525Z,97662.66
2023-03-19T07:24:23.824Z,97672.06
2023-03-19T07:26:25.757Z,97672.06
2023-03-19T07:28:27.115Z,97663.47
2023-03-19T07:30:28.413Z,97667.72
2023-03-19T07:32:29.720Z,97671.19
2023-03-19T07:34:31.063Z,97675.53
2023-03-19T07:36:32.401Z,97676.41
2023-03-19T07:38:33.711Z,97672.78
2023-03-19T07:40:35.398Z,97682.81
2023-03-19T07:42:36.913Z,97683.72
2023-03-19T07:44:38.320Z,97676.97
2023-03-19T07:46:39.621Z,97678.09
2023-03-19T07:48:41.032Z,97660.31
2023-03-19T07:50:42.349Z,97665.63
2023-03-19T07:52:43.685Z,97521.75
2023-03-19T07:54:44.981Z,97668.53
2023-03-19T07:56:46.797Z,97670.31
2023-03-19T07:58:48.116Z,97680.28
2023-03-19T08:00:49.410Z,97676.63
2023-03-19T08:02:50.986Z,97677.13
2023-03-19T08:04:52.379Z,97679.22
2023-03-19T08:06:53.737Z,97667.53
2023-03-19T08:08:55.053Z,97668.56
2023-03-19T08:10:56.639Z,97672.09
2023-03-19T08:12:58.112Z,97667.91
2023-03-19T08:14:59.400Z,97664.53
2023-03-19T08:17:00.836Z,97668.00
2023-03-19T08:19:02.296Z,97668.91
2023-03-19T08:21:03.942Z,97674.91
2023-03-19T08:23:05.279Z,97668.94
2023-03-19T08:25:06.893Z,97664.69
2023-03-19T08:27:08.271Z,97674.91
2023-03-19T08:29:12.501Z,97668.81
2023-03-19T08:31:13.857Z,97673.81
2023-03-19T08:33:15.252Z,97678.84
2023-03-19T08:35:16.750Z,97680.38
2023-03-19T08:37:18.040Z,97675.97
2023-03-19T08:39:19.361Z,97671.50
2023-03-19T08:41:20.757Z,97670.53
2023-03-19T08:43:22.205Z,97671.28
2023-03-19T08:45:23.693Z,97675.50
2023-03-19T08:47:25.057Z,97677.13
2023-03-19T08:49:26.346Z,97676.22
2023-03-19T08:51:28.357Z,97674.44
2023-03-19T08:53:29.679Z,97677.91
2023-03-19T08:55:31.024Z,97684.66
2023-03-19T08:57:32.337Z,97685.47
2023-03-19T08:59:34.379Z,97695.03
2023-03-19T09:01:36.496Z,97694.03
2023-03-19T09:03:37.823Z,97694.63
2023-03-19T09:05:39.193Z,97700.44
2023-03-19T09:07:40.597Z,97691.41
2023-03-19T09:09:41.898Z,97696.59
2023-03-19T09:11:43.197Z,97691.72
2023-03-19T09:13:44.502Z,97687.53
2023-03-19T09:15:45.833Z,97689.44
2023-03-19T09:17:47.130Z,97691.22
2023-03-19T09:19:48.503Z,97686.28
2023-03-19T09:21:50.358Z,97691.97
2023-03-19T09:23:52.807Z,97694.53
2023-03-19T09:25:54.179Z,97702.88
2023-03-19T09:27:55.616Z,97691.69
2023-03-19T09:29:56.921Z,97690.44
2023-03-19T09:31:58.284Z,97684.06
2023-03-19T09:33:59.631Z,97674.63
2023-03-19T09:36:02.270Z,97684.75
2023-03-19T09:38:03.659Z,97676.38
2023-03-19T09:40:05.426Z,97672.22
2023-03-19T09:42:06.943Z,97677.59
2023-03-19T09:44:08.253Z,97676.63
2023-03-19T09:46:09.613Z,97676.84
2023-03-19T09:48:10.947Z,97673.38
2023-03-19T09:50:12.442Z,97669.91
2023-03-19T09:52:19.501Z,97670.16
2023-03-19T09:54:21.208Z,97673.38
2023-03-19T09:56:22.531Z,97662.81
2023-03-19T09:58:23.832Z,97668.25
2023-03-19T10:00:25.601Z,97673.06
2023-03-19T10:02:26.904Z,97666.59
2023-03-19T10:04:28.214Z,97671.59
2023-03-19T10:06:29.669Z,97668.78
2023-03-19T10:08:32.012Z,97676.91
2023-03-19T10:10:33.455Z,97662.78
2023-03-19T10:12:35.112Z,97669.84
2023-03-19T10:14:36.815Z,97668.78
2023-03-19T10:16:38.154Z,97668.00
2023-03-19T10:18:39.545Z,97675.34
2023-03-19T10:20:41.180Z,97667.97
2023-03-19T10:22:42.515Z,97671.59
2023-03-19T10:24:43.809Z,97671.72
2023-03-19T10:26:45.801Z,97673.50
2023-03-19T10:28:47.417Z,97663.47
2023-03-19T10:30:48.764Z,97670.44
2023-03-19T10:32:50.104Z,97667.09
2023-03-19T10:34:53.905Z,97669.81
2023-03-19T10:36:55.331Z,97674.09
2023-03-19T10:38:56.843Z,97672.47
2023-03-19T10:40:58.179Z,97681.16
2023-03-19T10:42:59.469Z,97676.19
2023-03-19T10:45:01.102Z,97679.75
2023-03-19T10:47:02.429Z,97673.88
2023-03-19T10:49:03.729Z,97674.88
2023-03-19T10:51:07.696Z,97670.66
2023-03-19T10:53:09.064Z,97578.28
2023-03-19T10:55:10.373Z,97669.78
2023-03-19T10:57:11.712Z,97675.69
2023-03-19T10:59:13.019Z,97678.16
2023-03-19T11:01:14.357Z,97671.41
2023-03-19T11:03:15.937Z,97669.75
2023-03-19T11:05:17.224Z,97668.00
2023-03-19T11:07:18.601Z,97667.16
2023-03-19T11:09:22.812Z,97662.03
2023-03-19T11:11:24.661Z,97654.28
2023-03-19T11:13:26.170Z,97657.53
2023-03-19T11:15:30.264Z,97656.53
2023-03-19T11:17:35.335Z,97649.59
2023-03-19T11:19:36.929Z,97652.03
2023-03-19T11:21:38.230Z,97654.50
2023-03-19T11:23:39.530Z,97647.53
2023-03-19T11:25:42.328Z,97653.47
2023-03-19T11:27:43.658Z,97648.28
2023-03-19T11:29:44.978Z,97651.78
2023-03-19T11:31:46.291Z,97651.03
2023-03-19T11:33:48.327Z,97646.03
2023-03-19T11:35:49.685Z,97648.69
2023-03-19T11:37:52.018Z,97638.63
2023-03-19T11:39:54.121Z,97643.75
2023-03-19T11:41:55.521Z,97646.28
2023-03-19T11:43:57.583Z,97640.31
2023-03-19T11:45:59.331Z,97642.06
2023-03-19T11:48:00.727Z,97628.34
2023-03-19T11:50:02.035Z,97634.22
2023-03-19T11:52:03.344Z,97633.44
2023-03-19T11:54:04.641Z,97631.97
2023-03-19T11:56:07.989Z,97633.84
2023-03-19T11:58:09.367Z,97639.09
2023-03-19T12:00:13.459Z,97627.97
2023-03-19T12:02:14.770Z,97625.28
2023-03-19T12:04:18.760Z,97627.72
2023-03-19T12:06:20.059Z,97619.13
2023-03-19T12:08:24.623Z,97624.31
2023-03-19T12:10:26.041Z,97616.56
2023-03-19T12:12:27.377Z,97621.50
2023-03-19T12:14:28.715Z,97617.31
2023-03-19T12:16:31.400Z,97625.06
2023-03-19T12:18:32.696Z,97625.19
2023-03-19T12:20:34.004Z,97611.72
2023-03-19T12:22:36.343Z,97615.16
2023-03-19T12:24:38.004Z,97624.56
2023-03-19T12:26:39.316Z,97616.03
2023-03-19T12:28:40.666Z,97621.25
2023-03-19T12:30:41.985Z,97620.47
2023-03-19T12:32:43.578Z,97614.56
2023-03-19T12:34:45.280Z,97620.59
2023-03-19T12:36:47.109Z,97618.94
2023-03-19T12:38:48.638Z,97620.63
2023-03-19T12:40:49.951Z,97622.31
2023-03-19T12:42:51.947Z,97623.97
2023-03-19T12:44:53.245Z,97629.97
2023-03-19T12:46:56.142Z,97622.13
2023-03-19T12:48:59.259Z,97626.97
2023-03-19T12:51:00.944Z,97616.03
2023-03-19T12:53:02.254Z,97625.50
2023-03-19T12:55:04.467Z,97628.06
2023-03-19T12:57:05.787Z,97632.38
2023-03-19T12:59:07.393Z,97640.91
2023-03-19T13:01:09.115Z,97631.53
2023-03-19T13:03:10.454Z,97634.09
2023-03-19T13:05:12.796Z,97631.53
2023-03-19T13:07:14.099Z,97632.38
2023-03-19T13:09:15.434Z,97636.63
2023-03-19T13:11:16.880Z,97638.94
2023-03-19T13:13:18.211Z,97636.41
2023-03-19T13:15:19.557Z,97636.44
2023-03-19T13:17:21.604Z,97639.78
2023-03-19T13:19:22.972Z,97639.72
2023-03-19T13:21:24.686Z,97638.03
2023-03-19T13:23:26.464Z,97632.06
2023-03-19T13:25:27.785Z,97634.59
2023-03-19T13:27:29.085Z,97637.09
2023-03-19T13:29:30.494Z,97646.44
2023-03-19T13:31:31.881Z,97628.41
2023-03-19T13:33:33.235Z,97637.44
2023-03-19T13:35:40.601Z,97639.00
2023-03-19T13:37:42.070Z,97626.22
2023-03-19T13:39:43.511Z,97639.00
2023-03-19T13:41:44.819Z,97628.94
2023-03-19T13:43:46.573Z,97633.28
2023-03-19T13:45:47.885Z,97628.25
2023-03-19T13:47:49.296Z,97634.28
2023-03-19T13:49:50.596Z,97628.44
2023-03-19T13:51:51.904Z,97628.44
2023-03-19T13:53:56.198Z,97625.88
2023-03-19T13:55:57.480Z,97621.66
2023-03-19T13:58:12.284Z,97622.53
2023-03-19T14:00:13.604Z,97628.56
2023-03-19T14:02:14.920Z,97619.13
2023-03-19T14:04:16.509Z,97627.72
2023-03-19T14:06:17.814Z,97621.66
2023-03-19T14:08:19.835Z,97621.66
2023-03-19T14:10:21.126Z,97617.34
2023-03-19T14:12:22.482Z,97615.63
2023-03-19T14:14:23.830Z,97612.91
2023-03-19T14:16:25.757Z,97618.50
2023-03-19T14:18:27.083Z,97612.94
2023-03-19T14:20:37.389Z,97610.59
2023-03-19T14:22:42.090Z,97613.78
2023-03-19T14:24:59.704Z,97609.50
2023-03-19T14:27:01.056Z,97612.28
2023-03-19T14:29:02.687Z,97604.50
2023-03-19T14:31:04.400Z,97610.22
2023-03-19T14:33:06.958Z,97615.91
2023-03-19T14:35:08.301Z,97619.66
2023-03-19T14:37:09.614Z,97614.75
2023-03-19T14:39:10.981Z,97614.97
2023-03-19T14:41:12.278Z,97610.22
2023-03-19T14:43:13.572Z,97617.03
2023-03-19T14:45:14.906Z,97620.72
2023-03-19T14:47:16.982Z,97614.50
2023-03-19T14:49:18.296Z,97620.75
2023-03-19T14:51:20.387Z,97514.47
2023-03-19T14:53:21.680Z,97617.00
2023-03-19T14:55:23.154Z,97620.50
2023-03-19T14:57:24.458Z,97615.16
2023-03-19T14:59:25.783Z,97619.13
2023-03-19T15:01:27.312Z,97621.13
2023-03-19T15:03:28.702Z,97621.22
2023-03-19T15:05:30.053Z,97618.34
2023-03-19T15:07:31.531Z,97611.75
2023-03-19T15:09:33.076Z,97614.41
2023-03-19T15:11:34.418Z,97610.28
2023-03-19T15:13:35.768Z,97610.34
2023-03-19T15:15:44.383Z,97603.63
2023-03-19T15:17:51.706Z,97607.91
2023-03-19T15:19:58.923Z,97605.41
2023-03-19T15:22:00.270Z,97616.47
2023-03-19T15:24:04.598Z,97621.59
2023-03-19T15:26:08.738Z,97614.00
2023-03-19T15:28:13.858Z,97615.66
2023-03-19T15:30:18.697Z,97613.22
2023-03-19T15:32:20.330Z,97609.03
2023-03-19T15:34:21.907Z,97615.81
2023-03-19T15:36:24.056Z,97613.31
2023-03-19T15:38:31.203Z,97613.34
2023-03-19T15:40:32.707Z,97614.19
2023-03-19T15:42:34.112Z,97614.50
2023-03-19T15:44:36.478Z,97629.00
2023-03-19T15:46:40.543Z,97621.31
2023-03-19T15:48:42.302Z,97619.66
2023-03-19T15:50:44.366Z,97621.38
2023-03-19T15:52:51.591Z,97620.53
2023-03-19T15:54:52.881Z,97620.59
2023-03-19T15:56:54.225Z,97628.28
2023-03-19T15:58:55.523Z,97626.59
2023-03-19T16:00:56.839Z,97627.44
2023-03-19T16:02:58.169Z,97628.28
2023-03-19T16:05:22.479Z,97619.06
2023-03-19T16:07:20.943Z,97637.81
2023-03-19T16:09:22.314Z,97636.09
2023-03-19T16:11:23.643Z,97633.56
2023-03-19T16:13:25.699Z,97636.19
2023-03-19T16:15:27.602Z,97640.31
2023-03-19T16:17:28.896Z,97641.94
2023-03-19T16:19:31.392Z,97639.72
2023-03-19T16:21:33.898Z,97641.28
2023-03-19T16:23:35.647Z,97636.72
2023-03-19T16:25:37.198Z,97643.56
2023-03-19T16:27:38.502Z,97639.28
2023-03-19T16:29:39.822Z,97642.22
2023-03-19T16:31:41.231Z,97652.53
2023-03-19T16:33:42.528Z,97652.97
2023-03-19T16:35:44.822Z,97653.09
2023-03-19T16:39:50.172Z,97655.16
2023-03-19T16:41:51.541Z,97659.38
2023-03-19T16:43:52.891Z,97654.81
2023-03-19T16:45:54.203Z,97662.31
2023-03-19T16:47:55.619Z,97654.41
2023-03-19T16:49:56.909Z,97660.56
2023-03-19T16:53:59.570Z,97653.50
2023-03-19T16:56:01.589Z,97657.38
2023-03-19T16:58:05.695Z,97659.13
2023-03-19T17:00:07.748Z,97658.56
2023-03-19T17:02:09.092Z,97665.31
2023-03-19T17:04:14.198Z,97665.69
2023-03-19T17:06:15.934Z,97661.34
2023-03-19T17:08:17.309Z,97669.13
2023-03-19T17:10:18.640Z,97672.00
2023-03-19T17:12:19.980Z,97668.81
2023-03-19T17:14:21.831Z,97674.50
2023-03-19T17:16:23.207Z,97676.25
2023-03-19T17:18:24.698Z,97673.34
2023-03-19T17:20:26.381Z,97677.78
2023-03-19T17:22:27.718Z,97677.19
2023-03-19T17:24:29.190Z,97686.16
2023-03-19T17:26:30.624Z,97684.16
2023-03-19T17:28:32.478Z,97689.53
2023-03-19T17:30:34.130Z,97685.63
2023-03-19T17:32:38.444Z,97683.06
2023-03-19T17:34:40.147Z,97689.06
2023-03-19T17:36:41.752Z,97693.88
2023-03-19T17:38:43.074Z,97686.38
2023-03-19T17:40:44.393Z,97694.97
2023-03-19T17:42:45.953Z,97697.59
2023-03-19T17:44:47.294Z,97702.78
2023-03-19T17:46:49.828Z,97698.13
2023-03-19T17:48:51.432Z,97698.06
2023-03-19T17:50:52.779Z,97694.16
2023-03-19T17:53:00.125Z,97696.88
2023-03-19T17:57:02.888Z,97697.59
2023-03-19T17:59:04.320Z,97690.00
2023-03-19T18:01:05.855Z,97691.66
2023-03-19T18:03:07.227Z,97688.16
2023-03-19T18:05:08.732Z,97693.72
2023-03-19T18:07:10.222Z,97696.97
2023-03-19T18:09:11.525Z,97707.66
2023-03-19T18:11:12.886Z,97700.25
2023-03-19T18:13:14.290Z,97695.31
2023-03-19T18:15:15.722Z,97695.41
2023-03-19T18:17:17.057Z,97699.72
2023-03-19T18:19:21.268Z,97696.47
2023-03-19T18:21:22.719Z,97704.22
2023-03-19T18:23:24.859Z,97701.75
2023-03-19T18:25:26.206Z,97703.59
2023-03-19T18:27:27.592Z,97710.41
2023-03-19T18:29:28.900Z,97708.72
2023-03-19T18:31:30.490Z,97704.47
2023-03-19T18:33:31.824Z,97702.78
2023-03-19T18:35:33.854Z,97703.63
2023-03-19T18:37:36.160Z,97712.06
2023-03-19T18:39:38.551Z,97712.97
2023-03-19T18:41:40.019Z,97713.13
2023-03-19T18:43:41.312Z,97719.13
2023-03-19T18:45:42.639Z,97715.63
2023-03-19T18:47:46.666Z,97695.41
2023-03-19T18:49:50.900Z,97716.50
2023-03-19T18:52:03.485Z,97717.16
2023-03-19T18:54:05.116Z,97712.81
2023-03-19T18:56:07.873Z,97708.22
2023-03-19T18:58:09.170Z,97718.28
2023-03-19T19:00:10.665Z,97717.34
2023-03-19T19:02:11.960Z,97719.81
2023-03-19T19:04:13.373Z,97581.81
2023-03-19T19:06:14.662Z,97720.56
2023-03-19T19:08:16.192Z,97727.22
2023-03-19T19:10:17.596Z,97724.66
2023-03-19T19:12:19.048Z,97726.50
2023-03-19T19:14:24.194Z,97731.72
2023-03-19T19:16:25.565Z,97729.94
2023-03-19T19:18:26.967Z,97731.63
2023-03-19T19:20:31.052Z,97727.34
2023-03-19T19:22:32.354Z,97731.53
2023-03-19T19:24:33.689Z,97729.78
2023-03-19T19:26:36.400Z,97739.31
2023-03-19T19:28:40.800Z,97736.53
2023-03-19T19:30:47.040Z,97734.44
2023-03-19T19:32:48.511Z,97731.81
2023-03-19T19:34:49.851Z,97732.69
2023-03-19T19:36:52.418Z,97744.63
2023-03-19T19:38:53.761Z,97742.94
2023-03-19T19:40:55.210Z,97740.94
2023-03-19T19:42:56.544Z,97745.09
2023-03-19T19:45:01.510Z,97735.03
2023-03-19T19:47:09.238Z,97741.13
2023-03-19T19:49:12.077Z,97734.06
2023-03-19T19:51:13.538Z,97744.63
2023-03-19T19:53:15.205Z,97740.50
2023-03-19T19:55:16.559Z,97744.94
2023-03-19T19:57:27.096Z,97741.34
2023-03-19T19:59:28.404Z,97745.97
2023-03-19T20:01:32.888Z,97737.41
2023-03-19T20:03:37.900Z,97746.97
2023-03-19T20:05:39.266Z,97752.69
2023-03-19T20:07:40.807Z,97762.06
2023-03-19T20:09:42.127Z,97764.09
2023-03-19T20:11:43.710Z,97750.28
2023-03-19T20:13:49.143Z,97751.72
2023-03-19T20:15:53.647Z,97756.66
2023-03-19T20:17:55.076Z,97754.59
2023-03-19T20:19:56.400Z,97761.09
2023-03-19T20:21:57.731Z,97757.94
2023-03-19T20:23:59.080Z,97756.94
2023-03-19T20:26:01.769Z,97760.81
2023-03-19T20:28:03.527Z,97764.44
2023-03-19T20:30:05.135Z,97763.56
2023-03-19T20:32:06.630Z,97758.53
2023-03-19T20:34:07.929Z,97768.81
2023-03-19T20:36:13.444Z,97765.44
2023-03-19T20:38:14.812Z,97768.81
2023-03-19T20:40:16.304Z,97771.91
2023-03-19T20:42:17.589Z,97770.81
2023-03-19T20:44:18.924Z,97765.19
2023-03-19T20:46:20.461Z,97766.47
2023-03-19T20:48:22.199Z,97776.03
2023-03-19T20:50:23.799Z,97780.91
2023-03-19T20:52:25.902Z,97783.94
2023-03-19T20:54:27.791Z,97783.38
2023-03-19T20:56:30.812Z,97783.69
2023-03-19T20:58:33.568Z,97791.09
2023-03-19T21:00:34.892Z,97792.13
2023-03-19T21:02:36.228Z,97788.41
2023-03-19T21:04:37.528Z,97784.00
2023-03-19T21:06:52.393Z,97788.91
2023-03-19T21:08:57.131Z,97803.41
2023-03-19T21:10:58.491Z,97776.03
2023-03-19T21:12:59.844Z,97787.09
2023-03-19T21:15:02.210Z,97783.97
2023-03-19T21:17:03.541Z,97789.44
2023-03-19T21:19:05.602Z,97782.03
2023-03-19T21:21:07.778Z,97780.28
2023-03-19T21:23:09.140Z,97785.53
2023-03-19T21:25:10.902Z,97777.38
2023-03-19T21:27:12.196Z,97785.75
2023-03-19T21:29:14.119Z,97778.34
2023-03-19T21:31:18.017Z,97781.06
2023-03-19T21:33:19.709Z,97776.09
2023-03-19T21:35:21.116Z,97772.72
2023-03-19T21:37:22.448Z,97780.28
2023-03-19T21:39:23.820Z,97774.22
2023-03-19T21:41:26.063Z,97772.44
2023-03-19T21:43:27.847Z,97779.25
2023-03-19T21:45:29.183Z,97774.88
2023-03-19T21:47:30.479Z,97774.88
2023-03-19T21:49:31.792Z,97779.94
2023-03-19T21:51:33.088Z,97768.91
2023-03-19T21:53:34.380Z,97769.75
2023-03-19T21:55:35.835Z,97765.56
2023-03-19T21:57:37.298Z,97779.28
2023-03-19T21:59:38.681Z,97777.66
2023-03-19T22:01:40.608Z,97775.16
2023-03-19T22:03:41.981Z,97771.78
2023-03-19T22:05:43.341Z,97767.56
2023-03-19T22:07:44.675Z,97775.31
2023-03-19T22:09:45.991Z,97768.59
2023-03-19T22:11:47.349Z,97777.22
2023-03-19T22:13:48.764Z,97810.53
2023-03-19T22:15:50.537Z,97775.66
2023-03-19T22:17:51.866Z,97775.78
2023-03-19T22:19:53.300Z,97768.28
2023-03-19T22:21:55.219Z,97778.56
2023-03-19T22:23:56.702Z,97774.34
2023-03-19T22:25:58.022Z,97776.94
2023-03-19T22:27:59.579Z,97771.84
2023-03-19T22:30:00.982Z,97777.03
2023-03-19T22:32:02.347Z,97777.03
2023-03-19T22:34:03.812Z,97768.50
2023-03-19T22:36:05.255Z,97774.47
2023-03-19T22:38:06.591Z,97771.06
2023-03-19T22:40:07.897Z,97772.06
2023-03-19T22:42:09.188Z,97773.84
2023-03-19T22:44:10.508Z,97773.06
2023-03-19T22:46:12.136Z,97767.13
2023-03-19T22:48:13.595Z,97775.69
2023-03-19T22:50:14.920Z,97768.88
2023-03-19T22:52:16.256Z,97775.72
2023-03-19T22:54:17.556Z,97768.16
2023-03-19T22:56:18.852Z,97769.81
2023-03-19T22:58:20.464Z,97768.88
2023-03-19T23:00:23.488Z,97772.34
2023-03-19T23:02:25.002Z,97771.50
2023-03-19T23:04:26.541Z,97770.59
2023-03-19T23:06:30.941Z,97768.03
2023-03-19T23:08:32.515Z,97725.31
2023-03-19T23:10:33.860Z,97764.69
2023-03-19T23:12:35.168Z,97768.88
2023-03-19T23:14:36.943Z,97767.13
2023-03-19T23:16:38.590Z,97769.66
2023-03-19T23:18:40.297Z,97773.84
2023-03-19T23:20:41.911Z,97770.31
2023-03-19T23:22:43.807Z,97768.56
2023-03-19T23:24:45.124Z,97764.72
2023-03-19T23:26:46.426Z,97769.72
2023-03-19T23:28:48.682Z,97769.00
2023-03-19T23:30:50.296Z,97768.22
2023-03-19T23:32:52.674Z,97768.13
2023-03-19T23:35:00.577Z,97769.00
2023-03-19T23:37:02.881Z,97757.13
2023-03-19T23:39:04.225Z,97767.34
2023-03-19T23:41:06.079Z,97765.72
2023-03-19T23:43:07.735Z,97768.28
2023-03-19T23:45:09.032Z,97766.63
2023-03-19T23:47:10.868Z,97770.91
2023-03-19T23:49:12.269Z,97768.38
2023-03-19T23:51:14.064Z,97761.59
2023-03-19T23:53:15.364Z,97762.53
2023-03-19T23:55:16.979Z,97761.69
2023-03-19T23:57:18.301Z,97774.41